PGT2006 LTFJ-LTAI
Flight info
| Callsign | PGT2006 |
|---|---|
| Flight time | N/A |
| Altitude | 37000 |
| Route | ROXUK UN617 ERVAG UT305 TEKDO UT35 BABSA |
| Aircraft | A320/M-SDE3FGHIRWY/LB1 |
Departure
| Time | 2026-05-04 19:03 |
|---|---|
| Airport | Istanbul Sabiha Gökçen International Airport (LTFJ) |
Arrival
| Time | N/A |
|---|---|
| Airport | Antalya International Airport (LTAI) |
| Time | Latitude | Longitude | Altitude | Speed | Heading |
|---|---|---|---|---|---|
| 2026-05-04 18:29 | 40.90399 | 29.31102 | 309 ft | 0 kts | 334° |
| 2026-05-04 18:49 | 40.90379 | 29.31116 | 308 ft | 4 kts | 331° |
| 2026-05-04 18:50 | 40.90355 | 29.31134 | 308 ft | 4 kts | 325° |
| 2026-05-04 18:50 | 40.90334 | 29.31156 | 309 ft | 4 kts | 312° |
| 2026-05-04 18:50 | 40.90328 | 29.31165 | 309 ft | 0 kts | 310° |
| 2026-05-04 18:53 | 40.90331 | 29.31161 | 309 ft | 3 kts | 310° |
| 2026-05-04 18:53 | 40.90286 | 29.31106 | 310 ft | 12 kts | 180° |
| 2026-05-04 18:53 | 40.90227 | 29.31156 | 309 ft | 8 kts | 132° |
| 2026-05-04 18:53 | 40.90181 | 29.31169 | 309 ft | 6 kts | 174° |
| 2026-05-04 18:54 | 40.90147 | 29.31137 | 309 ft | 11 kts | 243° |
| 2026-05-04 18:54 | 40.90117 | 29.31059 | 308 ft | 9 kts | 243° |
| 2026-05-04 18:54 | 40.90049 | 29.30988 | 308 ft | 14 kts | 176° |
| 2026-05-04 18:54 | 40.89963 | 29.31034 | 307 ft | 13 kts | 154° |
| 2026-05-04 18:55 | 40.89883 | 29.31084 | 309 ft | 12 kts | 155° |
| 2026-05-04 18:55 | 40.89761 | 29.31161 | 308 ft | 8 kts | 149° |
| 2026-05-04 18:55 | 40.89711 | 29.31201 | 311 ft | 9 kts | 149° |
| 2026-05-04 18:56 | 40.89655 | 29.31184 | 310 ft | 10 kts | 243° |
| 2026-05-04 18:56 | 40.89643 | 29.31086 | 308 ft | 12 kts | 280° |
| 2026-05-04 18:56 | 40.89659 | 29.30972 | 308 ft | 13 kts | 281° |
| 2026-05-04 18:56 | 40.89660 | 29.30845 | 307 ft | 14 kts | 248° |
| 2026-05-04 18:57 | 40.89615 | 29.30726 | 307 ft | 15 kts | 244° |
| 2026-05-04 18:57 | 40.89567 | 29.30591 | 307 ft | 17 kts | 245° |
| 2026-05-04 18:57 | 40.89512 | 29.30446 | 306 ft | 19 kts | 245° |
| 2026-05-04 18:57 | 40.89452 | 29.30282 | 305 ft | 21 kts | 243° |
| 2026-05-04 18:58 | 40.89384 | 29.30094 | 305 ft | 24 kts | 245° |
| 2026-05-04 18:58 | 40.89321 | 29.29915 | 304 ft | 21 kts | 244° |
| 2026-05-04 18:58 | 40.89247 | 29.29749 | 304 ft | 18 kts | 227° |
| 2026-05-04 18:58 | 40.89153 | 29.29782 | 305 ft | 12 kts | 152° |
| 2026-05-04 18:59 | 40.89072 | 29.29839 | 303 ft | 17 kts | 153° |
| 2026-05-04 18:59 | 40.88976 | 29.29902 | 305 ft | 14 kts | 154° |
| 2026-05-04 18:59 | 40.88874 | 29.29968 | 303 ft | 15 kts | 154° |
| 2026-05-04 18:59 | 40.88802 | 29.30014 | 303 ft | 11 kts | 154° |
| 2026-05-04 19:00 | 40.88734 | 29.30061 | 303 ft | 14 kts | 146° |
| 2026-05-04 19:00 | 40.88699 | 29.30174 | 304 ft | 12 kts | 94° |
| 2026-05-04 19:00 | 40.88706 | 29.30281 | 307 ft | 13 kts | 74° |
| 2026-05-04 19:00 | 40.88750 | 29.30406 | 304 ft | 18 kts | 64° |
| 2026-05-04 19:01 | 40.88804 | 29.30556 | 306 ft | 18 kts | 64° |
| 2026-05-04 19:01 | 40.88815 | 29.30711 | 305 ft | 16 kts | 96° |
| 2026-05-04 19:01 | 40.88805 | 29.30840 | 308 ft | 11 kts | 94° |
| 2026-05-04 19:01 | 40.88801 | 29.30916 | 306 ft | 11 kts | 94° |
| 2026-05-04 19:02 | 40.88794 | 29.31041 | 308 ft | 16 kts | 94° |
| 2026-05-04 19:02 | 40.88804 | 29.31147 | 306 ft | 7 kts | 61° |
| 2026-05-04 19:02 | 40.88832 | 29.31215 | 308 ft | 26 kts | 62° |
| 2026-05-04 19:02 | 40.89049 | 29.31766 | 309 ft | 106 kts | 64° |
| 2026-05-04 19:03 | 40.89455 | 29.32925 | 370 ft | 164 kts | 65° |
| 2026-05-04 19:03 | 40.89958 | 29.34325 | 1036 ft | 179 kts | 63° |
| 2026-05-04 19:03 | 40.90510 | 29.35875 | 1634 ft | 192 kts | 70° |
| 2026-05-04 19:03 | 40.90515 | 29.37762 | 1994 ft | 221 kts | 95° |
| 2026-05-04 19:04 | 40.90325 | 29.39130 | 2272 ft | 237 kts | 98° |
| 2026-05-04 19:04 | 40.89977 | 29.41350 | 2859 ft | 253 kts | 97° |
| 2026-05-04 19:04 | 40.89620 | 29.43643 | 3738 ft | 258 kts | 102° |
| 2026-05-04 19:04 | 40.88678 | 29.45704 | 4582 ft | 274 kts | 134° |
| 2026-05-04 19:05 | 40.87002 | 29.47032 | 5298 ft | 287 kts | 153° |
| 2026-05-04 19:05 | 40.85183 | 29.48165 | 6137 ft | 292 kts | 153° |
| 2026-05-04 19:05 | 40.83329 | 29.49316 | 6945 ft | 297 kts | 152° |
| 2026-05-04 19:05 | 40.81447 | 29.50486 | 7786 ft | 301 kts | 152° |
| 2026-05-04 19:06 | 40.79544 | 29.51674 | 8633 ft | 304 kts | 152° |
| 2026-05-04 19:06 | 40.77678 | 29.53008 | 9471 ft | 305 kts | 141° |
| 2026-05-04 19:06 | 40.76080 | 29.54833 | 10269 ft | 303 kts | 127° |
| 2026-05-04 19:06 | 40.74727 | 29.57076 | 10575 ft | 323 kts | 122° |
| 2026-05-04 19:07 | 40.73335 | 29.59539 | 10782 ft | 347 kts | 122° |
| 2026-05-04 19:07 | 40.71831 | 29.62168 | 10930 ft | 371 kts | 126° |
| 2026-05-04 19:07 | 40.69944 | 29.64653 | 11106 ft | 395 kts | 138° |
| 2026-05-04 19:07 | 40.67604 | 29.66651 | 11621 ft | 407 kts | 150° |
| 2026-05-04 19:08 | 40.64950 | 29.68029 | 12264 ft | 414 kts | 162° |
| 2026-05-04 19:08 | 40.62095 | 29.68699 | 12882 ft | 421 kts | 175° |
| 2026-05-04 19:08 | 40.59151 | 29.68747 | 13482 ft | 426 kts | 179° |
| 2026-05-04 19:08 | 40.56209 | 29.68734 | 14017 ft | 431 kts | 179° |
| 2026-05-04 19:09 | 40.53198 | 29.68716 | 14525 ft | 435 kts | 179° |
| 2026-05-04 19:09 | 40.50161 | 29.68698 | 15031 ft | 439 kts | 179° |
| 2026-05-04 19:09 | 40.47098 | 29.68684 | 15538 ft | 442 kts | 179° |
| 2026-05-04 19:09 | 40.44006 | 29.68672 | 16051 ft | 446 kts | 179° |
| 2026-05-04 19:10 | 40.40895 | 29.68664 | 16538 ft | 449 kts | 179° |
| 2026-05-04 19:10 | 40.37759 | 29.68659 | 17026 ft | 453 kts | 179° |
| 2026-05-04 19:10 | 40.34595 | 29.68654 | 17519 ft | 456 kts | 179° |
| 2026-05-04 19:10 | 40.31404 | 29.68646 | 17993 ft | 460 kts | 179° |
| 2026-05-04 19:11 | 40.28192 | 29.68636 | 18441 ft | 464 kts | 179° |
| 2026-05-04 19:11 | 40.24953 | 29.68627 | 18833 ft | 467 kts | 179° |
| 2026-05-04 19:11 | 40.21686 | 29.68618 | 19232 ft | 471 kts | 179° |
| 2026-05-04 19:11 | 40.18396 | 29.68610 | 19622 ft | 474 kts | 178° |
| 2026-05-04 19:12 | 40.15098 | 29.68874 | 19988 ft | 477 kts | 173° |
| 2026-05-04 19:12 | 40.08433 | 29.69648 | 20737 ft | 483 kts | 173° |
| 2026-05-04 19:12 | 40.05075 | 29.70043 | 21090 ft | 486 kts | 173° |
| 2026-05-04 19:13 | 40.01693 | 29.70437 | 21437 ft | 489 kts | 173° |
| 2026-05-04 19:13 | 39.98288 | 29.70827 | 21786 ft | 493 kts | 173° |
| 2026-05-04 19:13 | 39.94862 | 29.71212 | 22121 ft | 496 kts | 173° |
| 2026-05-04 19:13 | 39.91427 | 29.71666 | 22458 ft | 497 kts | 168° |
| 2026-05-04 19:14 | 39.88098 | 29.72628 | 22802 ft | 497 kts | 160° |
| 2026-05-04 19:14 | 39.84861 | 29.74197 | 23133 ft | 496 kts | 152° |
| 2026-05-04 19:14 | 39.81696 | 29.76008 | 23431 ft | 499 kts | 152° |
| 2026-05-04 19:14 | 39.78499 | 29.77827 | 23707 ft | 502 kts | 152° |
| 2026-05-04 19:15 | 39.75285 | 29.79642 | 23959 ft | 505 kts | 153° |
| 2026-05-04 19:15 | 39.72056 | 29.81457 | 24220 ft | 507 kts | 153° |
| 2026-05-04 19:15 | 39.68811 | 29.83276 | 24491 ft | 509 kts | 153° |
| 2026-05-04 19:15 | 39.65545 | 29.85104 | 24759 ft | 511 kts | 153° |
| 2026-05-04 19:16 | 39.62272 | 29.86935 | 25023 ft | 513 kts | 153° |
| 2026-05-04 19:16 | 39.58991 | 29.88775 | 25358 ft | 513 kts | 153° |
| 2026-05-04 19:16 | 39.55719 | 29.90610 | 25759 ft | 512 kts | 153° |
| 2026-05-04 19:16 | 39.52458 | 29.92436 | 26153 ft | 511 kts | 153° |
| 2026-05-04 19:17 | 39.49199 | 29.94261 | 26560 ft | 509 kts | 152° |
| 2026-05-04 19:17 | 39.45954 | 29.96089 | 26963 ft | 508 kts | 152° |
| 2026-05-04 19:17 | 39.42718 | 29.97915 | 27374 ft | 507 kts | 152° |
| 2026-05-04 19:17 | 39.39484 | 29.99745 | 27790 ft | 506 kts | 152° |
| 2026-05-04 19:18 | 39.36269 | 30.01568 | 28220 ft | 505 kts | 151° |
| 2026-05-04 19:18 | 39.33050 | 30.03388 | 28640 ft | 504 kts | 151° |
| 2026-05-04 19:18 | 39.29844 | 30.05195 | 29060 ft | 503 kts | 151° |
| 2026-05-04 19:18 | 39.26638 | 30.07000 | 29474 ft | 502 kts | 151° |
| 2026-05-04 19:19 | 39.23441 | 30.08802 | 29891 ft | 501 kts | 151° |
| 2026-05-04 19:19 | 39.20243 | 30.10600 | 30268 ft | 501 kts | 151° |
| 2026-05-04 19:19 | 39.17051 | 30.12390 | 30620 ft | 500 kts | 151° |
| 2026-05-04 19:19 | 39.13867 | 30.14174 | 30979 ft | 498 kts | 152° |
| 2026-05-04 19:20 | 39.10687 | 30.15928 | 31342 ft | 498 kts | 155° |
| 2026-05-04 19:20 | 39.07418 | 30.17244 | 31710 ft | 500 kts | 164° |
| 2026-05-04 19:20 | 39.03980 | 30.17957 | 32095 ft | 501 kts | 174° |
| 2026-05-04 19:20 | 39.00507 | 30.18052 | 32498 ft | 499 kts | 181° |
| 2026-05-04 19:21 | 38.97044 | 30.17918 | 32939 ft | 496 kts | 181° |
| 2026-05-04 19:21 | 38.93606 | 30.17792 | 33404 ft | 492 kts | 181° |
| 2026-05-04 19:21 | 38.90196 | 30.17670 | 33878 ft | 488 kts | 182° |
| 2026-05-04 19:21 | 38.86818 | 30.17552 | 34293 ft | 484 kts | 182° |
| 2026-05-04 19:22 | 38.83461 | 30.17434 | 34644 ft | 482 kts | 182° |
| 2026-05-04 19:22 | 38.80113 | 30.17316 | 34948 ft | 480 kts | 182° |
| 2026-05-04 19:22 | 38.76777 | 30.17196 | 35236 ft | 479 kts | 182° |
| 2026-05-04 19:22 | 38.73449 | 30.17078 | 35507 ft | 478 kts | 182° |
| 2026-05-04 19:23 | 38.70132 | 30.16960 | 35777 ft | 477 kts | 182° |
| 2026-05-04 19:23 | 38.66814 | 30.16846 | 36038 ft | 476 kts | 182° |
| 2026-05-04 19:23 | 38.63506 | 30.16733 | 36286 ft | 475 kts | 183° |
| 2026-05-04 19:23 | 38.60207 | 30.16617 | 36516 ft | 474 kts | 183° |
| 2026-05-04 19:24 | 38.56913 | 30.16497 | 36733 ft | 474 kts | 183° |
| 2026-05-04 19:24 | 38.53601 | 30.16378 | 36199 ft | 480 kts | 183° |
| 2026-05-04 19:24 | 38.50219 | 30.16256 | 35008 ft | 492 kts | 182° |
| 2026-05-04 19:24 | 38.46788 | 30.16132 | 34330 ft | 492 kts | 182° |
| 2026-05-04 19:25 | 38.43367 | 30.16006 | 33513 ft | 493 kts | 182° |
| 2026-05-04 19:25 | 38.39929 | 30.15880 | 32492 ft | 497 kts | 182° |
| 2026-05-04 19:25 | 38.36447 | 30.15826 | 31390 ft | 504 kts | 176° |
| 2026-05-04 19:25 | 38.32958 | 30.16371 | 30271 ft | 509 kts | 166° |
| 2026-05-04 19:26 | 38.29546 | 30.17637 | 28998 ft | 512 kts | 157° |
| 2026-05-04 19:26 | 38.26179 | 30.19206 | 27747 ft | 518 kts | 158° |
| 2026-05-04 19:26 | 38.22780 | 30.20781 | 26597 ft | 521 kts | 158° |
| 2026-05-04 19:26 | 38.19397 | 30.22338 | 26168 ft | 509 kts | 159° |
| 2026-05-04 19:27 | 38.16127 | 30.23836 | 26035 ft | 490 kts | 159° |
| 2026-05-04 19:27 | 38.12971 | 30.25276 | 25903 ft | 474 kts | 159° |
| 2026-05-04 19:27 | 38.09923 | 30.26666 | 25774 ft | 458 kts | 159° |
| 2026-05-04 19:27 | 38.06972 | 30.28014 | 25651 ft | 443 kts | 159° |
| 2026-05-04 19:28 | 38.04121 | 30.29318 | 25524 ft | 429 kts | 159° |
| 2026-05-04 19:28 | 38.01446 | 30.30862 | 25382 ft | 415 kts | 148° |
| 2026-05-04 19:28 | 37.99096 | 30.32905 | 25050 ft | 406 kts | 139° |
| 2026-05-04 19:28 | 37.96885 | 30.35117 | 24680 ft | 402 kts | 139° |
| 2026-05-04 19:29 | 37.94707 | 30.37294 | 24495 ft | 398 kts | 140° |
| 2026-05-04 19:29 | 37.92530 | 30.39464 | 24330 ft | 397 kts | 140° |
| 2026-05-04 19:29 | 37.90357 | 30.41614 | 24160 ft | 396 kts | 142° |
| 2026-05-04 19:29 | 37.87976 | 30.43358 | 23993 ft | 396 kts | 159° |
| 2026-05-04 19:30 | 37.85323 | 30.44244 | 23820 ft | 394 kts | 175° |
| 2026-05-04 19:30 | 37.82608 | 30.44220 | 23657 ft | 388 kts | 192° |
| 2026-05-04 19:30 | 37.80035 | 30.43338 | 23470 ft | 380 kts | 208° |
| 2026-05-04 19:30 | 37.77764 | 30.41722 | 23304 ft | 372 kts | 219° |